sensor_id;sensor_type;location;lat;lon;timestamp;P1;durP1;ratioP1;P2;durP2;ratioP2
77148;SDS011;66122;47.130;16.844;2023-03-26T00:06:56;6.03;;;2.90;;
77148;SDS011;66122;47.130;16.844;2023-03-26T00:16:59;5.95;;;2.90;;
77148;SDS011;66122;47.130;16.844;2023-03-26T00:27:01;6.53;;;3.17;;
77148;SDS011;66122;47.130;16.844;2023-03-26T00:37:04;6.70;;;2.87;;
77148;SDS011;66122;47.130;16.844;2023-03-26T00:47:06;4.80;;;2.60;;
77148;SDS011;66122;47.130;16.844;2023-03-26T00:57:09;6.30;;;3.10;;
77148;SDS011;66122;47.130;16.844;2023-03-26T01:07:15;5.23;;;2.20;;
77148;SDS011;66122;47.130;16.844;2023-03-26T01:17:25;4.93;;;1.40;;
77148;SDS011;66122;47.130;16.844;2023-03-26T01:27:45;4.10;;;2.10;;
77148;SDS011;66122;47.130;16.844;2023-03-26T01:48:13;4.70;;;2.50;;
77148;SDS011;66122;47.130;16.844;2023-03-26T01:58:35;5.93;;;2.28;;
77148;SDS011;66122;47.130;16.844;2023-03-26T02:08:51;6.03;;;2.20;;
77148;SDS011;66122;47.130;16.844;2023-03-26T02:19:00;4.97;;;2.43;;
77148;SDS011;66122;47.130;16.844;2023-03-26T02:29:03;6.17;;;2.43;;
77148;SDS011;66122;47.130;16.844;2023-03-26T02:39:10;2.72;;;0.90;;
77148;SDS011;66122;47.130;16.844;2023-03-26T02:49:19;5.83;;;2.30;;
77148;SDS011;66122;47.130;16.844;2023-03-26T02:59:23;3.83;;;1.73;;
77148;SDS011;66122;47.130;16.844;2023-03-26T03:09:45;4.90;;;2.03;;
77148;SDS011;66122;47.130;16.844;2023-03-26T03:20:17;4.40;;;1.97;;
77148;SDS011;66122;47.130;16.844;2023-03-26T03:30:20;4.77;;;2.30;;
77148;SDS011;66122;47.130;16.844;2023-03-26T03:40:44;6.90;;;2.40;;
77148;SDS011;66122;47.130;16.844;2023-03-26T03:50:47;4.27;;;1.90;;
77148;SDS011;66122;47.130;16.844;2023-03-26T04:01:03;5.67;;;2.50;;
77148;SDS011;66122;47.130;16.844;2023-03-26T04:11:25;6.73;;;2.97;;
77148;SDS011;66122;47.130;16.844;2023-03-26T04:21:48;5.10;;;1.35;;
77148;SDS011;66122;47.130;16.844;2023-03-26T04:31:54;3.40;;;1.47;;
77148;SDS011;66122;47.130;16.844;2023-03-26T04:42:08;3.90;;;1.40;;
77148;SDS011;66122;47.130;16.844;2023-03-26T04:52:25;4.03;;;1.75;;
77148;SDS011;66122;47.130;16.844;2023-03-26T05:02:31;4.40;;;1.07;;
77148;SDS011;66122;47.130;16.844;2023-03-26T05:12:34;3.23;;;1.30;;
77148;SDS011;66122;47.130;16.844;2023-03-26T05:22:42;4.68;;;2.05;;
77148;SDS011;66122;47.130;16.844;2023-03-26T05:32:52;3.53;;;1.50;;
77148;SDS011;66122;47.130;16.844;2023-03-26T05:43:00;6.43;;;1.90;;
77148;SDS011;66122;47.130;16.844;2023-03-26T05:53:22;4.20;;;1.40;;
77148;SDS011;66122;47.130;16.844;2023-03-26T06:03:45;4.70;;;1.70;;
77148;SDS011;66122;47.130;16.844;2023-03-26T06:13:52;2.33;;;1.13;;
77148;SDS011;66122;47.130;16.844;2023-03-26T06:23:55;3.07;;;1.20;;
77148;SDS011;66122;47.130;16.844;2023-03-26T06:34:21;4.72;;;1.42;;
77148;SDS011;66122;47.130;16.844;2023-03-26T06:44:23;4.03;;;1.57;;
77148;SDS011;66122;47.130;16.844;2023-03-26T06:54:55;3.87;;;1.27;;
77148;SDS011;66122;47.130;16.844;2023-03-26T07:05:37;4.55;;;1.55;;
77148;SDS011;66122;47.130;16.844;2023-03-26T07:16:06;4.90;;;1.70;;
77148;SDS011;66122;47.130;16.844;2023-03-26T07:47:42;4.55;;;1.90;;
77148;SDS011;66122;47.130;16.844;2023-03-26T08:08:14;5.27;;;2.13;;
77148;SDS011;66122;47.130;16.844;2023-03-26T08:39:43;4.23;;;2.33;;
77148;SDS011;66122;47.130;16.844;2023-03-26T09:00:39;4.27;;;2.33;;
77148;SDS011;66122;47.130;16.844;2023-03-26T09:11:20;4.73;;;2.47;;
77148;SDS011;66122;47.130;16.844;2023-03-26T09:42:35;4.43;;;2.37;;
77148;SDS011;66122;47.130;16.844;2023-03-26T10:03:16;3.47;;;2.03;;
77148;SDS011;66122;47.130;16.844;2023-03-26T10:55:18;3.70;;;1.60;;
77148;SDS011;66122;47.130;16.844;2023-03-26T11:15:55;3.92;;;1.38;;
77148;SDS011;66122;47.130;16.844;2023-03-26T11:26:06;3.47;;;1.53;;
77148;SDS011;66122;47.130;16.844;2023-03-26T11:36:16;4.07;;;1.80;;
77148;SDS011;66122;47.130;16.844;2023-03-26T11:46:24;2.35;;;1.48;;
77148;SDS011;66122;47.130;16.844;2023-03-26T12:17:14;4.45;;;1.98;;
77148;SDS011;66122;47.130;16.844;2023-03-26T12:27:33;3.10;;;1.67;;
77148;SDS011;66122;47.130;16.844;2023-03-26T12:37:39;4.13;;;1.60;;
77148;SDS011;66122;47.130;16.844;2023-03-26T12:47:45;4.33;;;2.03;;
77148;SDS011;66122;47.130;16.844;2023-03-26T13:18:52;2.73;;;0.90;;
77148;SDS011;66122;47.130;16.844;2023-03-26T13:29:12;2.33;;;0.50;;
77148;SDS011;66122;47.130;16.844;2023-03-26T13:39:36;3.87;;;1.70;;
77148;SDS011;66122;47.130;16.844;2023-03-26T13:49:53;2.37;;;0.57;;
77148;SDS011;66122;47.130;16.844;2023-03-26T14:00:12;2.20;;;0.90;;
77148;SDS011;66122;47.130;16.844;2023-03-26T14:10:18;2.50;;;1.20;;
77148;SDS011;66122;47.130;16.844;2023-03-26T14:31:17;4.80;;;2.90;;
77148;SDS011;66122;47.130;16.844;2023-03-26T15:23:22;0.30;;;0.10;;
77148;SDS011;66122;47.130;16.844;2023-03-26T15:54:29;4.20;;;1.70;;
77148;SDS011;66122;47.130;16.844;2023-03-26T16:04:59;5.17;;;1.67;;
77148;SDS011;66122;47.130;16.844;2023-03-26T16:15:27;0.40;;;0.20;;
77148;SDS011;66122;47.130;16.844;2023-03-26T16:25:34;0.20;;;0.10;;
77148;SDS011;66122;47.130;16.844;2023-03-26T16:36:01;0.23;;;0.10;;
77148;SDS011;66122;47.130;16.844;2023-03-26T16:56:40;0.30;;;0.10;;
77148;SDS011;66122;47.130;16.844;2023-03-26T17:17:19;0.20;;;0.10;;
77148;SDS011;66122;47.130;16.844;2023-03-26T17:37:41;0.20;;;0.10;;
77148;SDS011;66122;47.130;16.844;2023-03-26T17:47:47;0.50;;;0.40;;
77148;SDS011;66122;47.130;16.844;2023-03-26T17:57:55;0.20;;;0.10;;
77148;SDS011;66122;47.130;16.844;2023-03-26T18:18:26;0.60;;;0.60;;
77148;SDS011;66122;47.130;16.844;2023-03-26T18:28:34;1.17;;;1.07;;
77148;SDS011;66122;47.130;16.844;2023-03-26T18:38:43;0.20;;;0.10;;
77148;SDS011;66122;47.130;16.844;2023-03-26T18:48:47;0.20;;;0.10;;
77148;SDS011;66122;47.130;16.844;2023-03-26T18:58:51;0.20;;;0.10;;
77148;SDS011;66122;47.130;16.844;2023-03-26T19:08:54;0.20;;;0.10;;
77148;SDS011;66122;47.130;16.844;2023-03-26T19:18:58;0.20;;;0.10;;
77148;SDS011;66122;47.130;16.844;2023-03-26T19:29:03;0.10;;;0.10;;
77148;SDS011;66122;47.130;16.844;2023-03-26T19:39:10;0.20;;;0.10;;
77148;SDS011;66122;47.130;16.844;2023-03-26T19:49:21;0.20;;;0.10;;
77148;SDS011;66122;47.130;16.844;2023-03-26T19:59:33;0.20;;;0.10;;
77148;SDS011;66122;47.130;16.844;2023-03-26T20:09:36;0.10;;;0.10;;
77148;SDS011;66122;47.130;16.844;2023-03-26T20:19:39;0.20;;;0.10;;
77148;SDS011;66122;47.130;16.844;2023-03-26T20:29:42;0.20;;;0.10;;
77148;SDS011;66122;47.130;16.844;2023-03-26T20:39:47;0.20;;;0.10;;
77148;SDS011;66122;47.130;16.844;2023-03-26T20:49:50;0.10;;;0.10;;
77148;SDS011;66122;47.130;16.844;2023-03-26T20:59:54;0.20;;;0.10;;
77148;SDS011;66122;47.130;16.844;2023-03-26T21:09:57;0.27;;;0.10;;
77148;SDS011;66122;47.130;16.844;2023-03-26T21:20:04;0.20;;;0.10;;
77148;SDS011;66122;47.130;16.844;2023-03-26T21:30:14;0.28;;;0.10;;
77148;SDS011;66122;47.130;16.844;2023-03-26T21:40:18;0.20;;;0.10;;
77148;SDS011;66122;47.130;16.844;2023-03-26T21:50:22;0.17;;;0.10;;
77148;SDS011;66122;47.130;16.844;2023-03-26T22:00:26;0.10;;;0.10;;
77148;SDS011;66122;47.130;16.844;2023-03-26T22:10:44;0.20;;;0.10;;
77148;SDS011;66122;47.130;16.844;2023-03-26T22:20:47;0.20;;;0.10;;
77148;SDS011;66122;47.130;16.844;2023-03-26T22:30:50;2.20;;;2.00;;
77148;SDS011;66122;47.130;16.844;2023-03-26T22:40:54;0.20;;;0.10;;
77148;SDS011;66122;47.130;16.844;2023-03-26T22:50:59;0.20;;;0.10;;
77148;SDS011;66122;47.130;16.844;2023-03-26T23:01:14;0.20;;;0.10;;
77148;SDS011;66122;47.130;16.844;2023-03-26T23:11:22;0.10;;;0.10;;
77148;SDS011;66122;47.130;16.844;2023-03-26T23:21:25;0.10;;;0.10;;
77148;SDS011;66122;47.130;16.844;2023-03-26T23:31:28;0.10;;;0.00;;
77148;SDS011;66122;47.130;16.844;2023-03-26T23:41:33;0.10;;;0.10;;
77148;SDS011;66122;47.130;16.844;2023-03-26T23:51:35;0.10;;;0.10;;
